sensor_id;sensor_type;location;lat;lon;timestamp;P1;durP1;ratioP1;P2;durP2;ratioP2
25758;SDS011;13604;52.496;13.456;2023-04-24T00:01:44;6.45;;;5.53;;
25758;SDS011;13604;52.496;13.456;2023-04-24T00:04:10;8.90;;;6.47;;
25758;SDS011;13604;52.496;13.456;2023-04-24T00:06:36;6.95;;;5.68;;
25758;SDS011;13604;52.496;13.456;2023-04-24T00:09:02;8.10;;;6.35;;
25758;SDS011;13604;52.496;13.456;2023-04-24T00:11:28;9.85;;;6.13;;
25758;SDS011;13604;52.496;13.456;2023-04-24T00:13:54;8.07;;;5.95;;
25758;SDS011;13604;52.496;13.456;2023-04-24T00:16:19;8.00;;;6.35;;
25758;SDS011;13604;52.496;13.456;2023-04-24T00:18:44;8.35;;;5.78;;
25758;SDS011;13604;52.496;13.456;2023-04-24T00:21:10;7.57;;;6.22;;
25758;SDS011;13604;52.496;13.456;2023-04-24T00:23:35;8.02;;;5.82;;
25758;SDS011;13604;52.496;13.456;2023-04-24T00:26:01;8.90;;;6.63;;
25758;SDS011;13604;52.496;13.456;2023-04-24T00:28:27;9.10;;;7.00;;
25758;SDS011;13604;52.496;13.456;2023-04-24T00:30:52;22.08;;;6.95;;
25758;SDS011;13604;52.496;13.456;2023-04-24T00:33:17;8.75;;;7.05;;
25758;SDS011;13604;52.496;13.456;2023-04-24T00:35:42;8.98;;;6.78;;
25758;SDS011;13604;52.496;13.456;2023-04-24T00:38:08;7.07;;;6.32;;
25758;SDS011;13604;52.496;13.456;2023-04-24T00:40:33;7.93;;;6.22;;
25758;SDS011;13604;52.496;13.456;2023-04-24T00:42:58;7.28;;;6.35;;
25758;SDS011;13604;52.496;13.456;2023-04-24T00:45:24;8.55;;;6.63;;
25758;SDS011;13604;52.496;13.456;2023-04-24T00:47:51;8.02;;;6.45;;
25758;SDS011;13604;52.496;13.456;2023-04-24T00:50:17;8.52;;;7.10;;
25758;SDS011;13604;52.496;13.456;2023-04-24T00:52:44;8.48;;;6.45;;
25758;SDS011;13604;52.496;13.456;2023-04-24T00:55:09;8.52;;;6.47;;
25758;SDS011;13604;52.496;13.456;2023-04-24T00:57:35;7.40;;;6.43;;
25758;SDS011;13604;52.496;13.456;2023-04-24T01:00:00;7.47;;;6.35;;
25758;SDS011;13604;52.496;13.456;2023-04-24T01:02:26;11.23;;;6.82;;
25758;SDS011;13604;52.496;13.456;2023-04-24T01:04:51;7.10;;;5.93;;
25758;SDS011;13604;52.496;13.456;2023-04-24T01:07:18;7.03;;;6.32;;
25758;SDS011;13604;52.496;13.456;2023-04-24T01:09:45;7.40;;;6.35;;
25758;SDS011;13604;52.496;13.456;2023-04-24T01:12:13;8.00;;;6.85;;
25758;SDS011;13604;52.496;13.456;2023-04-24T01:14:39;8.90;;;6.53;;
25758;SDS011;13604;52.496;13.456;2023-04-24T01:17:05;10.65;;;6.75;;
25758;SDS011;13604;52.496;13.456;2023-04-24T01:19:31;8.68;;;6.78;;
25758;SDS011;13604;52.496;13.456;2023-04-24T01:21:57;13.43;;;6.57;;
25758;SDS011;13604;52.496;13.456;2023-04-24T01:24:23;7.55;;;6.22;;
25758;SDS011;13604;52.496;13.456;2023-04-24T01:26:48;8.30;;;6.78;;
25758;SDS011;13604;52.496;13.456;2023-04-24T01:29:14;10.93;;;7.43;;
25758;SDS011;13604;52.496;13.456;2023-04-24T01:31:40;8.52;;;6.80;;
25758;SDS011;13604;52.496;13.456;2023-04-24T01:34:05;12.15;;;6.88;;
25758;SDS011;13604;52.496;13.456;2023-04-24T01:36:31;8.02;;;6.38;;
25758;SDS011;13604;52.496;13.456;2023-04-24T01:38:57;9.32;;;6.40;;
25758;SDS011;13604;52.496;13.456;2023-04-24T01:41:23;7.75;;;6.90;;
25758;SDS011;13604;52.496;13.456;2023-04-24T01:43:48;10.60;;;6.50;;
25758;SDS011;13604;52.496;13.456;2023-04-24T01:46:15;8.32;;;6.40;;
25758;SDS011;13604;52.496;13.456;2023-04-24T01:48:40;10.35;;;6.85;;
25758;SDS011;13604;52.496;13.456;2023-04-24T01:51:06;9.80;;;7.25;;
25758;SDS011;13604;52.496;13.456;2023-04-24T01:53:31;9.85;;;7.80;;
25758;SDS011;13604;52.496;13.456;2023-04-24T01:55:56;10.35;;;7.63;;
25758;SDS011;13604;52.496;13.456;2023-04-24T01:58:22;9.70;;;8.20;;
25758;SDS011;13604;52.496;13.456;2023-04-24T02:00:47;8.70;;;7.55;;
25758;SDS011;13604;52.496;13.456;2023-04-24T02:03:13;12.02;;;8.52;;
25758;SDS011;13604;52.496;13.456;2023-04-24T02:05:38;10.73;;;8.60;;
25758;SDS011;13604;52.496;13.456;2023-04-24T02:08:03;9.98;;;7.35;;
25758;SDS011;13604;52.496;13.456;2023-04-24T02:10:29;12.88;;;8.05;;
25758;SDS011;13604;52.496;13.456;2023-04-24T02:12:54;10.10;;;8.45;;
25758;SDS011;13604;52.496;13.456;2023-04-24T02:15:19;11.27;;;8.75;;
25758;SDS011;13604;52.496;13.456;2023-04-24T02:17:45;8.90;;;7.72;;
25758;SDS011;13604;52.496;13.456;2023-04-24T02:20:10;9.80;;;8.43;;
25758;SDS011;13604;52.496;13.456;2023-04-24T02:22:35;16.85;;;9.73;;
25758;SDS011;13604;52.496;13.456;2023-04-24T02:25:01;12.40;;;8.50;;
25758;SDS011;13604;52.496;13.456;2023-04-24T02:27:26;12.45;;;8.80;;
25758;SDS011;13604;52.496;13.456;2023-04-24T02:29:51;13.35;;;9.63;;
25758;SDS011;13604;52.496;13.456;2023-04-24T02:32:17;11.75;;;9.90;;
25758;SDS011;13604;52.496;13.456;2023-04-24T02:34:42;13.48;;;9.15;;
25758;SDS011;13604;52.496;13.456;2023-04-24T02:37:07;10.30;;;8.75;;
25758;SDS011;13604;52.496;13.456;2023-04-24T02:39:32;10.80;;;8.70;;
25758;SDS011;13604;52.496;13.456;2023-04-24T02:41:58;12.38;;;9.60;;
25758;SDS011;13604;52.496;13.456;2023-04-24T02:44:23;11.98;;;9.57;;
25758;SDS011;13604;52.496;13.456;2023-04-24T02:46:48;14.40;;;10.00;;
25758;SDS011;13604;52.496;13.456;2023-04-24T02:49:14;14.50;;;10.27;;
25758;SDS011;13604;52.496;13.456;2023-04-24T02:51:39;14.02;;;10.90;;
25758;SDS011;13604;52.496;13.456;2023-04-24T02:54:06;13.02;;;9.75;;
25758;SDS011;13604;52.496;13.456;2023-04-24T02:56:33;14.13;;;10.20;;
25758;SDS011;13604;52.496;13.456;2023-04-24T02:58:58;12.27;;;9.30;;
25758;SDS011;13604;52.496;13.456;2023-04-24T03:01:23;15.35;;;10.50;;
25758;SDS011;13604;52.496;13.456;2023-04-24T03:03:49;13.32;;;9.65;;
25758;SDS011;13604;52.496;13.456;2023-04-24T03:06:14;13.40;;;9.90;;
25758;SDS011;13604;52.496;13.456;2023-04-24T03:08:40;13.40;;;10.32;;
25758;SDS011;13604;52.496;13.456;2023-04-24T03:11:05;18.23;;;11.55;;
25758;SDS011;13604;52.496;13.456;2023-04-24T03:13:31;20.15;;;10.90;;
25758;SDS011;13604;52.496;13.456;2023-04-24T03:15:56;13.95;;;10.38;;
25758;SDS011;13604;52.496;13.456;2023-04-24T03:18:21;15.60;;;11.00;;
25758;SDS011;13604;52.496;13.456;2023-04-24T03:20:46;18.83;;;10.95;;
25758;SDS011;13604;52.496;13.456;2023-04-24T03:23:12;23.02;;;13.07;;
25758;SDS011;13604;52.496;13.456;2023-04-24T03:25:37;22.45;;;12.15;;
25758;SDS011;13604;52.496;13.456;2023-04-24T03:28:03;25.85;;;13.60;;
25758;SDS011;13604;52.496;13.456;2023-04-24T03:30:28;18.88;;;11.60;;
25758;SDS011;13604;52.496;13.456;2023-04-24T03:32:53;16.20;;;10.95;;
25758;SDS011;13604;52.496;13.456;2023-04-24T03:35:19;13.77;;;9.63;;
25758;SDS011;13604;52.496;13.456;2023-04-24T03:37:44;15.20;;;9.88;;
25758;SDS011;13604;52.496;13.456;2023-04-24T03:40:09;13.25;;;9.30;;
25758;SDS011;13604;52.496;13.456;2023-04-24T03:42:35;13.02;;;8.60;;
25758;SDS011;13604;52.496;13.456;2023-04-24T03:45:00;13.45;;;8.68;;
25758;SDS011;13604;52.496;13.456;2023-04-24T03:47:25;10.20;;;8.30;;
25758;SDS011;13604;52.496;13.456;2023-04-24T03:49:50;12.32;;;8.77;;
25758;SDS011;13604;52.496;13.456;2023-04-24T03:52:16;11.55;;;8.05;;
25758;SDS011;13604;52.496;13.456;2023-04-24T03:54:41;16.25;;;7.68;;
25758;SDS011;13604;52.496;13.456;2023-04-24T03:57:07;9.77;;;7.70;;
25758;SDS011;13604;52.496;13.456;2023-04-24T03:59:32;10.10;;;7.75;;
25758;SDS011;13604;52.496;13.456;2023-04-24T04:01:57;9.63;;;7.85;;
25758;SDS011;13604;52.496;13.456;2023-04-24T04:04:23;10.57;;;7.90;;
25758;SDS011;13604;52.496;13.456;2023-04-24T04:06:48;11.00;;;7.32;;
25758;SDS011;13604;52.496;13.456;2023-04-24T04:09:14;13.15;;;8.05;;
25758;SDS011;13604;52.496;13.456;2023-04-24T04:11:39;10.27;;;7.60;;
25758;SDS011;13604;52.496;13.456;2023-04-24T04:14:04;10.15;;;7.72;;
25758;SDS011;13604;52.496;13.456;2023-04-24T04:16:30;13.88;;;7.75;;
25758;SDS011;13604;52.496;13.456;2023-04-24T04:18:55;8.85;;;7.43;;
25758;SDS011;13604;52.496;13.456;2023-04-24T04:21:21;9.77;;;7.20;;
25758;SDS011;13604;52.496;13.456;2023-04-24T04:23:46;8.75;;;7.18;;
25758;SDS011;13604;52.496;13.456;2023-04-24T04:26:11;9.82;;;7.18;;
25758;SDS011;13604;52.496;13.456;2023-04-24T04:28:37;10.50;;;7.50;;
25758;SDS011;13604;52.496;13.456;2023-04-24T04:31:04;10.82;;;7.47;;
25758;SDS011;13604;52.496;13.456;2023-04-24T04:33:29;12.63;;;7.18;;
25758;SDS011;13604;52.496;13.456;2023-04-24T04:35:54;8.57;;;7.57;;
25758;SDS011;13604;52.496;13.456;2023-04-24T04:38:21;9.27;;;7.47;;
25758;SDS011;13604;52.496;13.456;2023-04-24T04:40:47;9.20;;;7.43;;
25758;SDS011;13604;52.496;13.456;2023-04-24T04:43:12;10.48;;;7.38;;
25758;SDS011;13604;52.496;13.456;2023-04-24T04:45:39;12.65;;;7.05;;
25758;SDS011;13604;52.496;13.456;2023-04-24T04:48:06;11.07;;;7.65;;
25758;SDS011;13604;52.496;13.456;2023-04-24T04:50:33;8.13;;;6.85;;
25758;SDS011;13604;52.496;13.456;2023-04-24T04:52:59;12.00;;;7.43;;
25758;SDS011;13604;52.496;13.456;2023-04-24T04:55:24;13.00;;;7.15;;
25758;SDS011;13604;52.496;13.456;2023-04-24T04:57:50;8.88;;;7.13;;
25758;SDS011;13604;52.496;13.456;2023-04-24T05:00:16;9.80;;;7.00;;
25758;SDS011;13604;52.496;13.456;2023-04-24T05:02:42;9.18;;;6.65;;
25758;SDS011;13604;52.496;13.456;2023-04-24T05:05:07;8.43;;;6.75;;
25758;SDS011;13604;52.496;13.456;2023-04-24T05:07:33;9.20;;;6.65;;
25758;SDS011;13604;52.496;13.456;2023-04-24T05:09:59;8.40;;;6.82;;
25758;SDS011;13604;52.496;13.456;2023-04-24T05:12:24;8.73;;;6.72;;
25758;SDS011;13604;52.496;13.456;2023-04-24T05:14:49;10.05;;;6.63;;
25758;SDS011;13604;52.496;13.456;2023-04-24T05:17:15;11.55;;;7.07;;
25758;SDS011;13604;52.496;13.456;2023-04-24T05:19:41;8.32;;;6.43;;
25758;SDS011;13604;52.496;13.456;2023-04-24T05:22:06;7.10;;;5.95;;
25758;SDS011;13604;52.496;13.456;2023-04-24T05:24:32;9.75;;;5.93;;
25758;SDS011;13604;52.496;13.456;2023-04-24T05:26:58;10.30;;;5.97;;
25758;SDS011;13604;52.496;13.456;2023-04-24T05:29:24;9.60;;;5.70;;
25758;SDS011;13604;52.496;13.456;2023-04-24T05:31:51;8.93;;;6.00;;
25758;SDS011;13604;52.496;13.456;2023-04-24T05:34:16;8.07;;;5.22;;
25758;SDS011;13604;52.496;13.456;2023-04-24T05:36:41;6.60;;;5.13;;
25758;SDS011;13604;52.496;13.456;2023-04-24T05:39:07;7.40;;;5.25;;
25758;SDS011;13604;52.496;13.456;2023-04-24T05:41:33;8.48;;;4.90;;
25758;SDS011;13604;52.496;13.456;2023-04-24T05:43:58;6.22;;;4.80;;
25758;SDS011;13604;52.496;13.456;2023-04-24T05:46:24;7.25;;;4.50;;
25758;SDS011;13604;52.496;13.456;2023-04-24T05:48:49;5.40;;;4.03;;
25758;SDS011;13604;52.496;13.456;2023-04-24T05:51:14;7.90;;;4.40;;
25758;SDS011;13604;52.496;13.456;2023-04-24T05:53:40;5.65;;;3.97;;
25758;SDS011;13604;52.496;13.456;2023-04-24T05:56:05;7.72;;;4.10;;
25758;SDS011;13604;52.496;13.456;2023-04-24T05:58:30;6.38;;;3.65;;
25758;SDS011;13604;52.496;13.456;2023-04-24T06:00:55;6.05;;;3.80;;
25758;SDS011;13604;52.496;13.456;2023-04-24T06:03:22;6.60;;;3.53;;
25758;SDS011;13604;52.496;13.456;2023-04-24T06:05:49;3.45;;;2.85;;
25758;SDS011;13604;52.496;13.456;2023-04-24T06:08:15;3.90;;;2.92;;
25758;SDS011;13604;52.496;13.456;2023-04-24T06:10:40;4.25;;;2.70;;
25758;SDS011;13604;52.496;13.456;2023-04-24T06:13:06;4.13;;;2.75;;
25758;SDS011;13604;52.496;13.456;2023-04-24T06:15:31;3.38;;;2.80;;
25758;SDS011;13604;52.496;13.456;2023-04-24T06:17:57;3.00;;;2.70;;
25758;SDS011;13604;52.496;13.456;2023-04-24T06:20:22;7.53;;;2.80;;
25758;SDS011;13604;52.496;13.456;2023-04-24T06:22:48;3.20;;;2.67;;
25758;SDS011;13604;52.496;13.456;2023-04-24T06:25:13;8.20;;;2.92;;
25758;SDS011;13604;52.496;13.456;2023-04-24T06:27:38;3.28;;;2.40;;
25758;SDS011;13604;52.496;13.456;2023-04-24T06:30:04;3.88;;;2.22;;
25758;SDS011;13604;52.496;13.456;2023-04-24T06:32:30;4.10;;;2.22;;
25758;SDS011;13604;52.496;13.456;2023-04-24T06:34:55;3.70;;;2.25;;
25758;SDS011;13604;52.496;13.456;2023-04-24T06:37:21;1.77;;;1.67;;
25758;SDS011;13604;52.496;13.456;2023-04-24T06:39:46;4.05;;;2.25;;
25758;SDS011;13604;52.496;13.456;2023-04-24T06:42:12;4.65;;;2.30;;
25758;SDS011;13604;52.496;13.456;2023-04-24T06:44:37;2.85;;;1.65;;
25758;SDS011;13604;52.496;13.456;2023-04-24T06:47:06;2.22;;;1.83;;
25758;SDS011;13604;52.496;13.456;2023-04-24T06:49:33;2.33;;;1.73;;
25758;SDS011;13604;52.496;13.456;2023-04-24T06:51:58;2.80;;;1.70;;
25758;SDS011;13604;52.496;13.456;2023-04-24T06:54:23;2.97;;;1.83;;
25758;SDS011;13604;52.496;13.456;2023-04-24T06:56:48;4.50;;;1.70;;
25758;SDS011;13604;52.496;13.456;2023-04-24T06:59:15;4.38;;;1.75;;
25758;SDS011;13604;52.496;13.456;2023-04-24T07:01:41;6.97;;;1.77;;
25758;SDS011;13604;52.496;13.456;2023-04-24T07:04:06;4.32;;;1.70;;
25758;SDS011;13604;52.496;13.456;2023-04-24T07:06:31;3.83;;;1.67;;
25758;SDS011;13604;52.496;13.456;2023-04-24T07:08:57;3.00;;;1.40;;
25758;SDS011;13604;52.496;13.456;2023-04-24T07:11:23;1.92;;;1.27;;
25758;SDS011;13604;52.496;13.456;2023-04-24T07:13:48;3.28;;;1.58;;
25758;SDS011;13604;52.496;13.456;2023-04-24T07:16:14;1.25;;;0.98;;
25758;SDS011;13604;52.496;13.456;2023-04-24T07:18:39;1.83;;;1.35;;
25758;SDS011;13604;52.496;13.456;2023-04-24T07:21:04;2.78;;;1.10;;
25758;SDS011;13604;52.496;13.456;2023-04-24T07:23:30;3.85;;;1.60;;
25758;SDS011;13604;52.496;13.456;2023-04-24T07:25:56;2.47;;;1.30;;
25758;SDS011;13604;52.496;13.456;2023-04-24T07:28:21;2.65;;;1.20;;
25758;SDS011;13604;52.496;13.456;2023-04-24T07:30:46;3.90;;;1.73;;
25758;SDS011;13604;52.496;13.456;2023-04-24T07:33:12;1.58;;;1.33;;
25758;SDS011;13604;52.496;13.456;2023-04-24T07:35:38;2.38;;;1.38;;
25758;SDS011;13604;52.496;13.456;2023-04-24T07:38:03;1.58;;;1.40;;
25758;SDS011;13604;52.496;13.456;2023-04-24T07:40:28;1.98;;;0.90;;
25758;SDS011;13604;52.496;13.456;2023-04-24T07:42:54;1.45;;;0.88;;
25758;SDS011;13604;52.496;13.456;2023-04-24T07:45:19;2.58;;;1.08;;
25758;SDS011;13604;52.496;13.456;2023-04-24T07:47:45;1.90;;;0.93;;
25758;SDS011;13604;52.496;13.456;2023-04-24T07:50:11;4.95;;;1.63;;
25758;SDS011;13604;52.496;13.456;2023-04-24T07:52:38;2.65;;;0.90;;
25758;SDS011;13604;52.496;13.456;2023-04-24T07:55:03;2.53;;;0.63;;
25758;SDS011;13604;52.496;13.456;2023-04-24T07:57:29;11.73;;;0.82;;
25758;SDS011;13604;52.496;13.456;2023-04-24T07:59:55;2.78;;;0.55;;
25758;SDS011;13604;52.496;13.456;2023-04-24T08:02:20;1.92;;;0.70;;
25758;SDS011;13604;52.496;13.456;2023-04-24T08:04:46;1.30;;;0.90;;
25758;SDS011;13604;52.496;13.456;2023-04-24T08:07:12;1.23;;;0.60;;
25758;SDS011;13604;52.496;13.456;2023-04-24T08:09:37;1.88;;;0.68;;
25758;SDS011;13604;52.496;13.456;2023-04-24T08:12:03;1.35;;;0.90;;
25758;SDS011;13604;52.496;13.456;2023-04-24T08:14:28;1.55;;;0.80;;
25758;SDS011;13604;52.496;13.456;2023-04-24T08:16:54;1.67;;;1.20;;
25758;SDS011;13604;52.496;13.456;2023-04-24T08:19:20;1.60;;;1.00;;
25758;SDS011;13604;52.496;13.456;2023-04-24T08:21:46;3.55;;;1.23;;
25758;SDS011;13604;52.496;13.456;2023-04-24T08:24:11;3.75;;;0.95;;
25758;SDS011;13604;52.496;13.456;2023-04-24T08:26:36;1.83;;;1.15;;
25758;SDS011;13604;52.496;13.456;2023-04-24T08:29:02;1.27;;;0.80;;
25758;SDS011;13604;52.496;13.456;2023-04-24T08:31:27;1.23;;;0.80;;
25758;SDS011;13604;52.496;13.456;2023-04-24T08:33:53;1.23;;;0.80;;
25758;SDS011;13604;52.496;13.456;2023-04-24T08:36:18;0.80;;;0.80;;
25758;SDS011;13604;52.496;13.456;2023-04-24T08:38:43;1.13;;;1.02;;
25758;SDS011;13604;52.496;13.456;2023-04-24T08:41:08;2.85;;;1.10;;
25758;SDS011;13604;52.496;13.456;2023-04-24T08:43:34;1.52;;;0.70;;
25758;SDS011;13604;52.496;13.456;2023-04-24T08:46:01;1.25;;;0.98;;
25758;SDS011;13604;52.496;13.456;2023-04-24T08:48:26;1.38;;;1.10;;
25758;SDS011;13604;52.496;13.456;2023-04-24T08:50:52;2.35;;;0.60;;
25758;SDS011;13604;52.496;13.456;2023-04-24T08:53:18;3.30;;;0.63;;
25758;SDS011;13604;52.496;13.456;2023-04-24T08:55:43;0.88;;;0.80;;
25758;SDS011;13604;52.496;13.456;2023-04-24T08:58:12;0.90;;;0.80;;
25758;SDS011;13604;52.496;13.456;2023-04-24T09:00:38;0.80;;;0.80;;
25758;SDS011;13604;52.496;13.456;2023-04-24T09:03:04;1.80;;;0.73;;
25758;SDS011;13604;52.496;13.456;2023-04-24T09:05:30;3.17;;;0.60;;
25758;SDS011;13604;52.496;13.456;2023-04-24T09:07:57;1.48;;;0.82;;
25758;SDS011;13604;52.496;13.456;2023-04-24T09:10:24;1.35;;;0.68;;
25758;SDS011;13604;52.496;13.456;2023-04-24T09:12:50;1.73;;;0.77;;
25758;SDS011;13604;52.496;13.456;2023-04-24T09:15:18;2.58;;;0.52;;
25758;SDS011;13604;52.496;13.456;2023-04-24T09:17:45;0.82;;;0.77;;
25758;SDS011;13604;52.496;13.456;2023-04-24T09:20:11;3.53;;;1.02;;
25758;SDS011;13604;52.496;13.456;2023-04-24T09:22:36;1.95;;;0.90;;
25758;SDS011;13604;52.496;13.456;2023-04-24T09:25:05;1.67;;;0.75;;
25758;SDS011;13604;52.496;13.456;2023-04-24T09:27:33;1.15;;;0.60;;
25758;SDS011;13604;52.496;13.456;2023-04-24T09:29:59;6.57;;;0.90;;
25758;SDS011;13604;52.496;13.456;2023-04-24T09:32:25;1.05;;;0.80;;
25758;SDS011;13604;52.496;13.456;2023-04-24T09:35:04;2.13;;;0.88;;
25758;SDS011;13604;52.496;13.456;2023-04-24T09:37:34;1.52;;;0.85;;
25758;SDS011;13604;52.496;13.456;2023-04-24T09:40:20;1.77;;;1.10;;
25758;SDS011;13604;52.496;13.456;2023-04-24T09:42:53;1.98;;;0.98;;
25758;SDS011;13604;52.496;13.456;2023-04-24T09:45:21;4.38;;;1.05;;
25758;SDS011;13604;52.496;13.456;2023-04-24T09:47:51;4.43;;;1.10;;
25758;SDS011;13604;52.496;13.456;2023-04-24T09:50:18;1.90;;;0.95;;
25758;SDS011;13604;52.496;13.456;2023-04-24T09:52:44;3.13;;;1.08;;
25758;SDS011;13604;52.496;13.456;2023-04-24T09:55:21;3.70;;;0.90;;
25758;SDS011;13604;52.496;13.456;2023-04-24T09:57:47;3.25;;;0.93;;
25758;SDS011;13604;52.496;13.456;2023-04-24T10:00:17;2.47;;;0.90;;
25758;SDS011;13604;52.496;13.456;2023-04-24T10:02:43;1.80;;;0.85;;
25758;SDS011;13604;52.496;13.456;2023-04-24T10:05:09;1.42;;;0.95;;
25758;SDS011;13604;52.496;13.456;2023-04-24T10:07:37;2.17;;;0.70;;
25758;SDS011;13604;52.496;13.456;2023-04-24T10:10:02;3.90;;;0.90;;
25758;SDS011;13604;52.496;13.456;2023-04-24T10:12:28;1.58;;;0.73;;
25758;SDS011;13604;52.496;13.456;2023-04-24T10:14:54;3.85;;;0.90;;
25758;SDS011;13604;52.496;13.456;2023-04-24T10:17:20;2.17;;;0.98;;
25758;SDS011;13604;52.496;13.456;2023-04-24T10:19:46;2.03;;;0.80;;
25758;SDS011;13604;52.496;13.456;2023-04-24T10:22:12;0.93;;;0.75;;
25758;SDS011;13604;52.496;13.456;2023-04-24T10:24:38;2.67;;;0.73;;
25758;SDS011;13604;52.496;13.456;2023-04-24T10:27:04;1.13;;;0.77;;
25758;SDS011;13604;52.496;13.456;2023-04-24T10:29:31;1.92;;;0.73;;
25758;SDS011;13604;52.496;13.456;2023-04-24T10:31:56;1.30;;;0.60;;
25758;SDS011;13604;52.496;13.456;2023-04-24T10:34:22;5.88;;;1.20;;
25758;SDS011;13604;52.496;13.456;2023-04-24T10:36:50;1.35;;;0.70;;
25758;SDS011;13604;52.496;13.456;2023-04-24T10:39:17;3.03;;;0.68;;
25758;SDS011;13604;52.496;13.456;2023-04-24T10:41:43;1.27;;;0.90;;
25758;SDS011;13604;52.496;13.456;2023-04-24T10:44:10;1.70;;;0.65;;
25758;SDS011;13604;52.496;13.456;2023-04-24T10:46:37;1.90;;;0.70;;
25758;SDS011;13604;52.496;13.456;2023-04-24T10:49:04;3.28;;;1.00;;
25758;SDS011;13604;52.496;13.456;2023-04-24T10:51:44;2.00;;;0.80;;
25758;SDS011;13604;52.496;13.456;2023-04-24T10:59:48;3.88;;;0.98;;
25758;SDS011;13604;52.496;13.456;2023-04-24T11:02:15;1.38;;;0.77;;
25758;SDS011;13604;52.496;13.456;2023-04-24T11:04:41;2.10;;;1.10;;
25758;SDS011;13604;52.496;13.456;2023-04-24T11:07:08;1.42;;;0.80;;
25758;SDS011;13604;52.496;13.456;2023-04-24T11:09:34;1.63;;;0.80;;
25758;SDS011;13604;52.496;13.456;2023-04-24T11:12:04;4.03;;;0.95;;
25758;SDS011;13604;52.496;13.456;2023-04-24T11:17:32;0.95;;;0.70;;
25758;SDS011;13604;52.496;13.456;2023-04-24T11:20:03;1.98;;;1.00;;
25758;SDS011;13604;52.496;13.456;2023-04-24T11:22:33;2.67;;;0.68;;
25758;SDS011;13604;52.496;13.456;2023-04-24T11:25:00;1.77;;;0.80;;
25758;SDS011;13604;52.496;13.456;2023-04-24T11:27:30;1.58;;;1.10;;
25758;SDS011;13604;52.496;13.456;2023-04-24T11:32:39;1.52;;;0.82;;
25758;SDS011;13604;52.496;13.456;2023-04-24T11:35:15;1.00;;;0.90;;
25758;SDS011;13604;52.496;13.456;2023-04-24T11:37:43;5.47;;;1.30;;
25758;SDS011;13604;52.496;13.456;2023-04-24T11:40:14;2.13;;;1.70;;
25758;SDS011;13604;52.496;13.456;2023-04-24T11:42:42;4.97;;;1.88;;
25758;SDS011;13604;52.496;13.456;2023-04-24T11:45:15;3.28;;;1.42;;
25758;SDS011;13604;52.496;13.456;2023-04-24T11:47:42;3.10;;;1.20;;
25758;SDS011;13604;52.496;13.456;2023-04-24T11:50:10;1.60;;;1.50;;
25758;SDS011;13604;52.496;13.456;2023-04-24T11:52:37;2.55;;;1.17;;
25758;SDS011;13604;52.496;13.456;2023-04-24T11:55:04;2.75;;;1.38;;
25758;SDS011;13604;52.496;13.456;2023-04-24T11:57:31;2.88;;;1.08;;
25758;SDS011;13604;52.496;13.456;2023-04-24T12:00:03;8.30;;;1.20;;
25758;SDS011;13604;52.496;13.456;2023-04-24T12:02:30;6.93;;;1.38;;
25758;SDS011;13604;52.496;13.456;2023-04-24T12:04:55;3.13;;;0.93;;
25758;SDS011;13604;52.496;13.456;2023-04-24T12:07:21;1.38;;;0.88;;
25758;SDS011;13604;52.496;13.456;2023-04-24T12:09:48;1.52;;;0.93;;
25758;SDS011;13604;52.496;13.456;2023-04-24T12:12:15;3.65;;;1.20;;
25758;SDS011;13604;52.496;13.456;2023-04-24T12:14:47;1.60;;;0.73;;
25758;SDS011;13604;52.496;13.456;2023-04-24T12:17:14;0.73;;;0.73;;
25758;SDS011;13604;52.496;13.456;2023-04-24T12:19:44;1.80;;;0.90;;
25758;SDS011;13604;52.496;13.456;2023-04-24T12:22:11;1.25;;;0.70;;
25758;SDS011;13604;52.496;13.456;2023-04-24T12:24:54;3.25;;;0.90;;
25758;SDS011;13604;52.496;13.456;2023-04-24T12:27:21;0.88;;;0.80;;
25758;SDS011;13604;52.496;13.456;2023-04-24T12:29:53;3.35;;;0.80;;
25758;SDS011;13604;52.496;13.456;2023-04-24T12:32:21;3.15;;;1.00;;
25758;SDS011;13604;52.496;13.456;2023-04-24T12:34:46;1.13;;;0.82;;
25758;SDS011;13604;52.496;13.456;2023-04-24T12:37:12;1.38;;;0.93;;
25758;SDS011;13604;52.496;13.456;2023-04-24T12:39:37;1.63;;;0.80;;
25758;SDS011;13604;52.496;13.456;2023-04-24T12:42:03;1.65;;;0.82;;
25758;SDS011;13604;52.496;13.456;2023-04-24T12:44:28;1.27;;;0.98;;
25758;SDS011;13604;52.496;13.456;2023-04-24T12:46:59;1.00;;;0.90;;
25758;SDS011;13604;52.496;13.456;2023-04-24T12:49:25;4.82;;;0.95;;
25758;SDS011;13604;52.496;13.456;2023-04-24T12:51:51;0.70;;;0.70;;
25758;SDS011;13604;52.496;13.456;2023-04-24T12:54:16;2.13;;;1.20;;
25758;SDS011;13604;52.496;13.456;2023-04-24T12:56:42;2.15;;;0.70;;
25758;SDS011;13604;52.496;13.456;2023-04-24T12:59:07;0.60;;;0.60;;
25758;SDS011;13604;52.496;13.456;2023-04-24T13:01:32;3.33;;;0.85;;
25758;SDS011;13604;52.496;13.456;2023-04-24T13:03:58;2.20;;;0.57;;
25758;SDS011;13604;52.496;13.456;2023-04-24T13:06:23;1.83;;;1.20;;
25758;SDS011;13604;52.496;13.456;2023-04-24T13:08:48;2.65;;;0.90;;
25758;SDS011;13604;52.496;13.456;2023-04-24T13:11:14;2.72;;;1.00;;
25758;SDS011;13604;52.496;13.456;2023-04-24T13:13:39;4.55;;;0.70;;
25758;SDS011;13604;52.496;13.456;2023-04-24T13:16:05;3.70;;;1.00;;
25758;SDS011;13604;52.496;13.456;2023-04-24T13:18:30;2.40;;;0.60;;
25758;SDS011;13604;52.496;13.456;2023-04-24T13:20:55;1.13;;;0.80;;
25758;SDS011;13604;52.496;13.456;2023-04-24T13:23:20;3.75;;;0.50;;
25758;SDS011;13604;52.496;13.456;2023-04-24T13:25:47;1.90;;;0.80;;
25758;SDS011;13604;52.496;13.456;2023-04-24T13:28:13;4.53;;;0.60;;
25758;SDS011;13604;52.496;13.456;2023-04-24T13:30:38;0.98;;;0.65;;
25758;SDS011;13604;52.496;13.456;2023-04-24T13:33:03;1.77;;;0.90;;
25758;SDS011;13604;52.496;13.456;2023-04-24T13:35:28;1.98;;;0.65;;
25758;SDS011;13604;52.496;13.456;2023-04-24T13:37:54;1.88;;;0.80;;
25758;SDS011;13604;52.496;13.456;2023-04-24T13:40:19;1.17;;;0.70;;
25758;SDS011;13604;52.496;13.456;2023-04-24T13:42:44;1.17;;;0.80;;
25758;SDS011;13604;52.496;13.456;2023-04-24T13:45:10;3.67;;;0.60;;
25758;SDS011;13604;52.496;13.456;2023-04-24T13:47:35;2.28;;;0.70;;
25758;SDS011;13604;52.496;13.456;2023-04-24T13:50:01;1.75;;;0.80;;
25758;SDS011;13604;52.496;13.456;2023-04-24T13:52:26;0.82;;;0.70;;
25758;SDS011;13604;52.496;13.456;2023-04-24T13:54:51;14.23;;;1.00;;
25758;SDS011;13604;52.496;13.456;2023-04-24T13:57:17;3.05;;;0.95;;
25758;SDS011;13604;52.496;13.456;2023-04-24T13:59:42;1.42;;;0.80;;
25758;SDS011;13604;52.496;13.456;2023-04-24T14:02:08;0.85;;;0.80;;
25758;SDS011;13604;52.496;13.456;2023-04-24T14:04:33;4.43;;;0.73;;
25758;SDS011;13604;52.496;13.456;2023-04-24T14:06:58;2.08;;;0.60;;
25758;SDS011;13604;52.496;13.456;2023-04-24T14:09:24;1.38;;;0.85;;
25758;SDS011;13604;52.496;13.456;2023-04-24T14:11:49;0.93;;;0.77;;
25758;SDS011;13604;52.496;13.456;2023-04-24T14:14:14;1.02;;;0.73;;
25758;SDS011;13604;52.496;13.456;2023-04-24T14:16:40;6.80;;;0.90;;
25758;SDS011;13604;52.496;13.456;2023-04-24T14:19:05;4.60;;;0.93;;
25758;SDS011;13604;52.496;13.456;2023-04-24T14:21:31;3.28;;;1.10;;
25758;SDS011;13604;52.496;13.456;2023-04-24T14:23:56;0.70;;;0.70;;
25758;SDS011;13604;52.496;13.456;2023-04-24T14:26:21;2.25;;;0.70;;
25758;SDS011;13604;52.496;13.456;2023-04-24T14:28:47;1.48;;;1.13;;
25758;SDS011;13604;52.496;13.456;2023-04-24T14:31:12;3.65;;;0.60;;
25758;SDS011;13604;52.496;13.456;2023-04-24T14:33:38;1.38;;;0.90;;
25758;SDS011;13604;52.496;13.456;2023-04-24T14:36:03;1.02;;;0.80;;